sensor_id;sensor_type;location;lat;lon;timestamp;pressure;altitude;pressure_sealevel;temperature;humidity
61761;BME280;47664;51.660;-0.100;2022-11-20T00:00:32;100509.22;;;8.13;58.42
61761;BME280;47664;51.660;-0.100;2022-11-20T00:03:05;100502.88;;;7.80;58.75
61761;BME280;47664;51.660;-0.100;2022-11-20T00:05:37;100502.66;;;7.82;58.36
61761;BME280;47664;51.660;-0.100;2022-11-20T00:08:09;100505.67;;;8.08;58.50
61761;BME280;47664;51.660;-0.100;2022-11-20T00:10:41;100505.72;;;7.82;58.64
61761;BME280;47664;51.660;-0.100;2022-11-20T00:13:14;100506.81;;;8.14;58.38
61761;BME280;47664;51.660;-0.100;2022-11-20T00:15:46;100504.93;;;7.92;58.43
61761;BME280;47664;51.660;-0.100;2022-11-20T00:18:18;100501.09;;;7.98;58.23
61761;BME280;47664;51.660;-0.100;2022-11-20T00:20:50;100496.36;;;8.02;58.30
61761;BME280;47664;51.660;-0.100;2022-11-20T00:23:23;100491.94;;;7.91;58.39
61761;BME280;47664;51.660;-0.100;2022-11-20T00:25:54;100486.50;;;8.38;57.39
61761;BME280;47664;51.660;-0.100;2022-11-20T00:28:27;100483.86;;;8.47;57.22
61761;BME280;47664;51.660;-0.100;2022-11-20T00:31:01;100481.18;;;8.19;57.35
61761;BME280;47664;51.660;-0.100;2022-11-20T00:33:33;100479.06;;;8.06;58.07
61761;BME280;47664;51.660;-0.100;2022-11-20T00:36:07;100479.24;;;7.80;59.16
61761;BME280;47664;51.660;-0.100;2022-11-20T00:38:40;100477.04;;;8.05;58.79
61761;BME280;47664;51.660;-0.100;2022-11-20T00:41:14;100471.81;;;8.01;58.38
61761;BME280;47664;51.660;-0.100;2022-11-20T00:43:47;100469.10;;;8.34;57.82
61761;BME280;47664;51.660;-0.100;2022-11-20T00:46:21;100463.47;;;8.36;57.83
61761;BME280;47664;51.660;-0.100;2022-11-20T00:48:54;100454.74;;;8.64;57.21
61761;BME280;47664;51.660;-0.100;2022-11-20T00:51:27;100451.02;;;8.43;57.30
61761;BME280;47664;51.660;-0.100;2022-11-20T00:54:00;100452.57;;;8.39;57.81
61761;BME280;47664;51.660;-0.100;2022-11-20T00:56:32;100453.05;;;8.13;58.46
61761;BME280;47664;51.660;-0.100;2022-11-20T00:59:05;100453.19;;;8.24;58.18
61761;BME280;47664;51.660;-0.100;2022-11-20T01:01:37;100452.49;;;8.23;58.41
61761;BME280;47664;51.660;-0.100;2022-11-20T01:04:10;100446.75;;;8.40;57.89
61761;BME280;47664;51.660;-0.100;2022-11-20T01:06:42;100448.75;;;8.53;57.59
61761;BME280;47664;51.660;-0.100;2022-11-20T01:09:13;100448.54;;;8.49;57.83
61761;BME280;47664;51.660;-0.100;2022-11-20T01:11:47;100448.95;;;8.47;57.85
61761;BME280;47664;51.660;-0.100;2022-11-20T01:14:20;100446.98;;;8.58;57.58
61761;BME280;47664;51.660;-0.100;2022-11-20T01:16:53;100443.17;;;8.39;57.21
61761;BME280;47664;51.660;-0.100;2022-11-20T01:19:26;100439.03;;;8.81;57.03
61761;BME280;47664;51.660;-0.100;2022-11-20T01:21:59;100439.02;;;8.56;57.55
61761;BME280;47664;51.660;-0.100;2022-11-20T01:24:31;100434.40;;;8.02;58.25
61761;BME280;47664;51.660;-0.100;2022-11-20T01:27:03;100429.78;;;8.77;57.35
61761;BME280;47664;51.660;-0.100;2022-11-20T01:29:35;100430.42;;;8.58;57.69
61761;BME280;47664;51.660;-0.100;2022-11-20T01:32:07;100423.83;;;8.40;57.91
61761;BME280;47664;51.660;-0.100;2022-11-20T01:34:39;100421.25;;;8.37;58.09
61761;BME280;47664;51.660;-0.100;2022-11-20T01:37:11;100414.05;;;8.31;58.53
61761;BME280;47664;51.660;-0.100;2022-11-20T01:39:43;100413.80;;;8.02;58.96
61761;BME280;47664;51.660;-0.100;2022-11-20T01:42:15;100410.19;;;8.38;58.48
61761;BME280;47664;51.660;-0.100;2022-11-20T01:44:49;100410.06;;;8.46;58.44
61761;BME280;47664;51.660;-0.100;2022-11-20T01:47:26;100404.59;;;8.38;58.94
61761;BME280;47664;51.660;-0.100;2022-11-20T01:50:00;100402.08;;;8.04;59.21
61761;BME280;47664;51.660;-0.100;2022-11-20T01:52:34;100399.07;;;8.09;59.89
61761;BME280;47664;51.660;-0.100;2022-11-20T01:55:11;100397.19;;;7.81;60.09
61761;BME280;47664;51.660;-0.100;2022-11-20T01:57:46;100391.47;;;7.93;60.10
61761;BME280;47664;51.660;-0.100;2022-11-20T02:00:21;100387.65;;;7.78;60.25
61761;BME280;47664;51.660;-0.100;2022-11-20T02:02:53;100379.69;;;7.89;60.42
61761;BME280;47664;51.660;-0.100;2022-11-20T02:05:31;100370.16;;;7.81;60.86
61761;BME280;47664;51.660;-0.100;2022-11-20T02:08:05;100367.67;;;7.95;60.64
61761;BME280;47664;51.660;-0.100;2022-11-20T02:10:38;100366.74;;;7.98;60.30
61761;BME280;47664;51.660;-0.100;2022-11-20T02:13:10;100361.94;;;7.74;60.51
61761;BME280;47664;51.660;-0.100;2022-11-20T02:15:43;100353.93;;;7.58;60.60
61761;BME280;47664;51.660;-0.100;2022-11-20T02:18:17;100350.11;;;7.49;60.57
61761;BME280;47664;51.660;-0.100;2022-11-20T02:20:48;100347.81;;;7.61;60.41
61761;BME280;47664;51.660;-0.100;2022-11-20T02:23:24;100344.57;;;7.75;59.99
61761;BME280;47664;51.660;-0.100;2022-11-20T02:25:59;100340.11;;;7.94;60.00
61761;BME280;47664;51.660;-0.100;2022-11-20T02:28:34;100334.84;;;7.76;59.77
61761;BME280;47664;51.660;-0.100;2022-11-20T02:31:06;100333.07;;;7.71;60.06
61761;BME280;47664;51.660;-0.100;2022-11-20T02:33:39;100326.50;;;7.76;60.36
61761;BME280;47664;51.660;-0.100;2022-11-20T02:36:14;100322.01;;;7.63;60.55
61761;BME280;47664;51.660;-0.100;2022-11-20T02:38:48;100319.88;;;7.46;61.13
61761;BME280;47664;51.660;-0.100;2022-11-20T02:41:21;100316.86;;;7.41;61.14
61761;BME280;47664;51.660;-0.100;2022-11-20T02:43:53;100312.03;;;7.34;61.42
61761;BME280;47664;51.660;-0.100;2022-11-20T02:46:25;100311.67;;;7.46;61.06
61761;BME280;47664;51.660;-0.100;2022-11-20T02:48:58;100309.89;;;7.44;60.92
61761;BME280;47664;51.660;-0.100;2022-11-20T02:51:30;100307.10;;;7.49;60.76
61761;BME280;47664;51.660;-0.100;2022-11-20T02:54:02;100305.95;;;7.15;61.04
61761;BME280;47664;51.660;-0.100;2022-11-20T02:56:37;100298.03;;;7.01;61.44
61761;BME280;47664;51.660;-0.100;2022-11-20T02:59:10;100295.17;;;7.46;61.46
61761;BME280;47664;51.660;-0.100;2022-11-20T03:01:42;100291.70;;;7.41;60.64
61761;BME280;47664;51.660;-0.100;2022-11-20T03:04:14;100284.76;;;7.14;60.66
61761;BME280;47664;51.660;-0.100;2022-11-20T03:06:46;100273.92;;;7.13;61.14
61761;BME280;47664;51.660;-0.100;2022-11-20T03:09:18;100265.73;;;6.86;62.16
61761;BME280;47664;51.660;-0.100;2022-11-20T03:11:51;100271.40;;;7.28;61.43
61761;BME280;47664;51.660;-0.100;2022-11-20T03:14:24;100274.63;;;7.65;60.80
61761;BME280;47664;51.660;-0.100;2022-11-20T03:16:56;100266.01;;;7.74;59.90
61761;BME280;47664;51.660;-0.100;2022-11-20T03:19:28;100265.56;;;7.36;60.71
61761;BME280;47664;51.660;-0.100;2022-11-20T03:22:00;100255.28;;;6.85;61.88
61761;BME280;47664;51.660;-0.100;2022-11-20T03:24:33;100257.87;;;7.11;61.19
61761;BME280;47664;51.660;-0.100;2022-11-20T03:27:05;100254.37;;;6.90;61.99
61761;BME280;47664;51.660;-0.100;2022-11-20T03:29:36;100248.97;;;6.88;62.17
61761;BME280;47664;51.660;-0.100;2022-11-20T03:32:09;100245.65;;;6.81;61.88
61761;BME280;47664;51.660;-0.100;2022-11-20T03:34:41;100245.69;;;6.96;61.58
61761;BME280;47664;51.660;-0.100;2022-11-20T03:37:13;100243.87;;;7.18;61.17
61761;BME280;47664;51.660;-0.100;2022-11-20T03:39:45;100239.14;;;7.28;61.32
61761;BME280;47664;51.660;-0.100;2022-11-20T03:42:18;100236.72;;;7.32;60.95
61761;BME280;47664;51.660;-0.100;2022-11-20T03:44:50;100238.07;;;7.67;60.76
61761;BME280;47664;51.660;-0.100;2022-11-20T03:47:22;100241.06;;;7.57;60.42
61761;BME280;47664;51.660;-0.100;2022-11-20T03:49:55;100232.11;;;7.75;60.50
61761;BME280;47664;51.660;-0.100;2022-11-20T03:52:27;100224.41;;;7.75;60.06
61761;BME280;47664;51.660;-0.100;2022-11-20T03:54:59;100222.07;;;7.85;59.56
61761;BME280;47664;51.660;-0.100;2022-11-20T03:57:31;100219.78;;;7.48;60.12
61761;BME280;47664;51.660;-0.100;2022-11-20T04:00:04;100214.35;;;7.29;60.38
61761;BME280;47664;51.660;-0.100;2022-11-20T04:02:36;100210.25;;;6.96;61.29
61761;BME280;47664;51.660;-0.100;2022-11-20T04:05:08;100204.82;;;7.05;61.29
61761;BME280;47664;51.660;-0.100;2022-11-20T04:07:40;100205.35;;;7.16;61.79
61761;BME280;47664;51.660;-0.100;2022-11-20T04:10:13;100202.54;;;7.07;61.79
61761;BME280;47664;51.660;-0.100;2022-11-20T04:12:44;100200.86;;;6.69;62.07
61761;BME280;47664;51.660;-0.100;2022-11-20T04:15:17;100200.31;;;6.54;63.78
61761;BME280;47664;51.660;-0.100;2022-11-20T04:17:49;100195.50;;;6.75;63.55
61761;BME280;47664;51.660;-0.100;2022-11-20T04:20:21;100194.22;;;6.86;63.48
61761;BME280;47664;51.660;-0.100;2022-11-20T04:22:53;100190.03;;;6.44;64.36
61761;BME280;47664;51.660;-0.100;2022-11-20T04:25:25;100194.53;;;6.58;64.54
61761;BME280;47664;51.660;-0.100;2022-11-20T04:27:57;100188.39;;;6.69;64.14
61761;BME280;47664;51.660;-0.100;2022-11-20T04:30:30;100182.29;;;6.51;64.69
61761;BME280;47664;51.660;-0.100;2022-11-20T04:33:02;100175.47;;;6.88;65.64
61761;BME280;47664;51.660;-0.100;2022-11-20T04:35:35;100169.64;;;6.73;65.70
61761;BME280;47664;51.660;-0.100;2022-11-20T04:38:08;100163.68;;;6.81;65.57
61761;BME280;47664;51.660;-0.100;2022-11-20T04:40:40;100160.32;;;6.65;65.35
61761;BME280;47664;51.660;-0.100;2022-11-20T04:43:13;100159.97;;;6.89;65.92
61761;BME280;47664;51.660;-0.100;2022-11-20T04:45:50;100160.16;;;6.71;65.81
61761;BME280;47664;51.660;-0.100;2022-11-20T04:48:22;100161.23;;;6.50;66.31
61761;BME280;47664;51.660;-0.100;2022-11-20T04:50:55;100155.96;;;6.87;65.72
61761;BME280;47664;51.660;-0.100;2022-11-20T04:53:28;100153.34;;;7.05;65.86
61761;BME280;47664;51.660;-0.100;2022-11-20T04:56:00;100150.36;;;6.56;66.53
61761;BME280;47664;51.660;-0.100;2022-11-20T04:58:32;100142.60;;;6.72;67.14
61761;BME280;47664;51.660;-0.100;2022-11-20T05:01:07;100138.25;;;6.61;67.62
61761;BME280;47664;51.660;-0.100;2022-11-20T05:03:39;100135.77;;;6.70;67.99
61761;BME280;47664;51.660;-0.100;2022-11-20T05:06:13;100130.11;;;6.65;67.85
61761;BME280;47664;51.660;-0.100;2022-11-20T05:08:46;100125.42;;;6.53;68.32
61761;BME280;47664;51.660;-0.100;2022-11-20T05:11:19;100124.01;;;6.82;67.94
61761;BME280;47664;51.660;-0.100;2022-11-20T05:13:52;100120.65;;;6.35;68.25
61761;BME280;47664;51.660;-0.100;2022-11-20T05:16:26;100113.93;;;6.86;68.40
61761;BME280;47664;51.660;-0.100;2022-11-20T05:18:59;100106.35;;;6.75;68.61
61761;BME280;47664;51.660;-0.100;2022-11-20T05:21:31;100098.91;;;6.86;68.49
61761;BME280;47664;51.660;-0.100;2022-11-20T05:24:03;100096.79;;;6.94;68.87
61761;BME280;47664;51.660;-0.100;2022-11-20T05:26:35;100098.30;;;6.55;69.22
61761;BME280;47664;51.660;-0.100;2022-11-20T05:29:09;100094.80;;;6.62;69.47
61761;BME280;47664;51.660;-0.100;2022-11-20T05:31:41;100085.37;;;6.69;69.84
61761;BME280;47664;51.660;-0.100;2022-11-20T05:34:13;100080.75;;;6.89;69.25
61761;BME280;47664;51.660;-0.100;2022-11-20T05:36:46;100073.69;;;6.96;69.11
61761;BME280;47664;51.660;-0.100;2022-11-20T05:39:18;100071.54;;;6.58;70.09
61761;BME280;47664;51.660;-0.100;2022-11-20T05:41:50;100063.26;;;6.66;70.07
61761;BME280;47664;51.660;-0.100;2022-11-20T05:44:22;100059.57;;;6.85;70.01
61761;BME280;47664;51.660;-0.100;2022-11-20T05:46:54;100062.61;;;6.71;69.55
61761;BME280;47664;51.660;-0.100;2022-11-20T05:49:26;100063.43;;;6.63;69.16
61761;BME280;47664;51.660;-0.100;2022-11-20T05:51:58;100060.54;;;6.73;68.89
61761;BME280;47664;51.660;-0.100;2022-11-20T05:54:30;100058.43;;;7.12;67.89
61761;BME280;47664;51.660;-0.100;2022-11-20T05:57:03;100056.25;;;7.12;67.89
61761;BME280;47664;51.660;-0.100;2022-11-20T05:59:35;100053.50;;;7.30;68.30
61761;BME280;47664;51.660;-0.100;2022-11-20T06:02:07;100050.90;;;7.13;68.59
61761;BME280;47664;51.660;-0.100;2022-11-20T06:04:40;100049.09;;;7.10;68.78
61761;BME280;47664;51.660;-0.100;2022-11-20T06:07:11;100045.80;;;7.09;68.67
61761;BME280;47664;51.660;-0.100;2022-11-20T06:09:44;100044.89;;;7.24;69.29
61761;BME280;47664;51.660;-0.100;2022-11-20T06:12:16;100044.89;;;7.17;68.56
61761;BME280;47664;51.660;-0.100;2022-11-20T06:14:48;100041.01;;;7.19;68.60
61761;BME280;47664;51.660;-0.100;2022-11-20T06:17:20;100037.44;;;6.97;69.02
61761;BME280;47664;51.660;-0.100;2022-11-20T06:19:52;100030.24;;;6.97;69.65
61761;BME280;47664;51.660;-0.100;2022-11-20T06:22:24;100027.97;;;6.79;70.83
61761;BME280;47664;51.660;-0.100;2022-11-20T06:24:56;100022.48;;;6.94;70.70
61761;BME280;47664;51.660;-0.100;2022-11-20T06:27:28;100021.93;;;6.40;71.65
61761;BME280;47664;51.660;-0.100;2022-11-20T06:30:01;100015.03;;;6.91;71.27
61761;BME280;47664;51.660;-0.100;2022-11-20T06:32:33;100009.24;;;6.85;71.55
61761;BME280;47664;51.660;-0.100;2022-11-20T06:35:05;100004.69;;;6.94;71.58
61761;BME280;47664;51.660;-0.100;2022-11-20T06:37:37;100007.78;;;6.97;71.44
61761;BME280;47664;51.660;-0.100;2022-11-20T06:40:11;100012.65;;;6.75;71.08
61761;BME280;47664;51.660;-0.100;2022-11-20T06:42:43;100008.80;;;6.82;71.63
61761;BME280;47664;51.660;-0.100;2022-11-20T06:45:15;100000.01;;;6.87;71.79
61761;BME280;47664;51.660;-0.100;2022-11-20T06:47:47;100000.13;;;6.46;73.13
61761;BME280;47664;51.660;-0.100;2022-11-20T06:50:19;99994.11;;;6.62;73.36
61761;BME280;47664;51.660;-0.100;2022-11-20T06:52:51;99999.98;;;6.57;73.02
61761;BME280;47664;51.660;-0.100;2022-11-20T06:55:23;99995.86;;;6.97;72.67
61761;BME280;47664;51.660;-0.100;2022-11-20T06:57:56;100001.40;;;6.90;72.12
61761;BME280;47664;51.660;-0.100;2022-11-20T07:00:28;100000.71;;;6.96;71.12
61761;BME280;47664;51.660;-0.100;2022-11-20T07:03:02;99990.45;;;6.71;72.25
61761;BME280;47664;51.660;-0.100;2022-11-20T07:05:35;100000.17;;;7.07;71.33
61761;BME280;47664;51.660;-0.100;2022-11-20T07:08:08;100006.94;;;6.95;71.36
61761;BME280;47664;51.660;-0.100;2022-11-20T07:10:40;100018.13;;;7.57;70.14
61761;BME280;47664;51.660;-0.100;2022-11-20T07:13:12;100025.23;;;7.45;70.53
61761;BME280;47664;51.660;-0.100;2022-11-20T07:15:44;99999.39;;;7.49;70.48
61761;BME280;47664;51.660;-0.100;2022-11-20T07:18:16;100011.60;;;7.41;70.20
61761;BME280;47664;51.660;-0.100;2022-11-20T07:20:48;100007.83;;;8.07;69.49
61761;BME280;47664;51.660;-0.100;2022-11-20T07:23:21;100021.10;;;7.39;69.97
61761;BME280;47664;51.660;-0.100;2022-11-20T07:25:53;100021.99;;;7.77;70.04
61761;BME280;47664;51.660;-0.100;2022-11-20T07:28:25;100016.78;;;8.02;69.20
61761;BME280;47664;51.660;-0.100;2022-11-20T07:30:58;100011.61;;;8.17;68.04
61761;BME280;47664;51.660;-0.100;2022-11-20T07:33:30;100010.41;;;8.49;67.16
61761;BME280;47664;51.660;-0.100;2022-11-20T07:36:04;99996.65;;;8.50;65.83
61761;BME280;47664;51.660;-0.100;2022-11-20T07:38:36;99989.05;;;8.21;66.59
61761;BME280;47664;51.660;-0.100;2022-11-20T07:41:09;99983.77;;;8.25;67.25
61761;BME280;47664;51.660;-0.100;2022-11-20T07:43:41;99985.36;;;8.18;67.36
61761;BME280;47664;51.660;-0.100;2022-11-20T07:46:13;99982.16;;;8.19;67.16
61761;BME280;47664;51.660;-0.100;2022-11-20T07:48:45;99977.08;;;8.38;66.55
61761;BME280;47664;51.660;-0.100;2022-11-20T07:51:17;99976.26;;;8.46;66.37
61761;BME280;47664;51.660;-0.100;2022-11-20T07:53:50;99977.79;;;8.60;66.05
61761;BME280;47664;51.660;-0.100;2022-11-20T07:56:22;99981.38;;;8.86;66.31
61761;BME280;47664;51.660;-0.100;2022-11-20T07:58:55;99978.28;;;8.71;65.28
61761;BME280;47664;51.660;-0.100;2022-11-20T08:01:27;99984.53;;;8.46;65.44
61761;BME280;47664;51.660;-0.100;2022-11-20T08:03:59;99987.43;;;8.76;65.20
61761;BME280;47664;51.660;-0.100;2022-11-20T08:06:32;99993.29;;;8.54;64.95
61761;BME280;47664;51.660;-0.100;2022-11-20T08:09:04;99995.31;;;9.04;65.03
61761;BME280;47664;51.660;-0.100;2022-11-20T08:11:36;100002.49;;;8.64;65.17
61761;BME280;47664;51.660;-0.100;2022-11-20T08:14:08;100007.54;;;8.62;65.73
61761;BME280;47664;51.660;-0.100;2022-11-20T08:16:41;100009.78;;;8.38;66.09
61761;BME280;47664;51.660;-0.100;2022-11-20T08:19:13;100014.00;;;8.64;65.99
61761;BME280;47664;51.660;-0.100;2022-11-20T08:21:46;100022.72;;;8.16;67.01
61761;BME280;47664;51.660;-0.100;2022-11-20T08:24:18;100026.62;;;7.95;67.50
61761;BME280;47664;51.660;-0.100;2022-11-20T08:26:50;100024.77;;;8.29;67.83
61761;BME280;47664;51.660;-0.100;2022-11-20T08:29:22;100024.67;;;7.89;68.27
61761;BME280;47664;51.660;-0.100;2022-11-20T08:31:55;100029.41;;;7.73;68.31
61761;BME280;47664;51.660;-0.100;2022-11-20T08:34:27;100028.84;;;7.13;69.95
61761;BME280;47664;51.660;-0.100;2022-11-20T08:36:59;100023.48;;;7.36;70.34
61761;BME280;47664;51.660;-0.100;2022-11-20T08:39:33;100020.62;;;7.67;70.31
61761;BME280;47664;51.660;-0.100;2022-11-20T08:42:06;100026.37;;;7.62;70.06
61761;BME280;47664;51.660;-0.100;2022-11-20T08:44:38;100027.88;;;7.56;70.22
61761;BME280;47664;51.660;-0.100;2022-11-20T08:47:10;100025.76;;;7.24;70.65
61761;BME280;47664;51.660;-0.100;2022-11-20T08:49:42;100024.67;;;7.08;71.19
61761;BME280;47664;51.660;-0.100;2022-11-20T08:52:14;100024.91;;;7.08;71.35
61761;BME280;47664;51.660;-0.100;2022-11-20T08:54:47;100031.12;;;7.13;71.33
61761;BME280;47664;51.660;-0.100;2022-11-20T08:57:19;100032.13;;;6.93;71.28
61761;BME280;47664;51.660;-0.100;2022-11-20T08:59:50;100028.58;;;7.05;71.18
61761;BME280;47664;51.660;-0.100;2022-11-20T09:02:23;100032.37;;;7.35;71.33
61761;BME280;47664;51.660;-0.100;2022-11-20T09:04:55;100028.78;;;7.10;70.93
61761;BME280;47664;51.660;-0.100;2022-11-20T09:07:27;100029.21;;;7.27;70.97
61761;BME280;47664;51.660;-0.100;2022-11-20T09:10:00;100026.84;;;7.20;70.95
61761;BME280;47664;51.660;-0.100;2022-11-20T09:12:32;100033.08;;;7.39;71.34
61761;BME280;47664;51.660;-0.100;2022-11-20T09:15:04;100032.56;;;7.61;71.58
61761;BME280;47664;51.660;-0.100;2022-11-20T09:17:36;100029.71;;;7.25;72.31
61761;BME280;47664;51.660;-0.100;2022-11-20T09:20:09;100023.59;;;6.90;72.70
61761;BME280;47664;51.660;-0.100;2022-11-20T09:22:44;100024.04;;;7.47;72.55
61761;BME280;47664;51.660;-0.100;2022-11-20T09:25:17;100017.97;;;6.66;72.97
61761;BME280;47664;51.660;-0.100;2022-11-20T09:27:54;100021.36;;;6.97;72.70
61761;BME280;47664;51.660;-0.100;2022-11-20T09:30:26;100021.77;;;6.94;72.40
61761;BME280;47664;51.660;-0.100;2022-11-20T09:32:59;100033.43;;;7.23;72.92
61761;BME280;47664;51.660;-0.100;2022-11-20T09:35:31;100047.18;;;6.91;73.07
61761;BME280;47664;51.660;-0.100;2022-11-20T09:38:04;100055.79;;;6.95;73.25
61761;BME280;47664;51.660;-0.100;2022-11-20T09:40:40;100060.38;;;6.76;73.10
61761;BME280;47664;51.660;-0.100;2022-11-20T09:43:18;100063.19;;;6.91;72.21
61761;BME280;47664;51.660;-0.100;2022-11-20T09:46:00;100059.84;;;7.19;71.89
61761;BME280;47664;51.660;-0.100;2022-11-20T09:48:40;100060.27;;;7.40;71.92
61761;BME280;47664;51.660;-0.100;2022-11-20T09:51:20;100060.21;;;6.94;72.83
61761;BME280;47664;51.660;-0.100;2022-11-20T09:54:00;100060.68;;;7.10;73.25
61761;BME280;47664;51.660;-0.100;2022-11-20T09:56:34;100059.87;;;7.24;73.49
61761;BME280;47664;51.660;-0.100;2022-11-20T09:59:15;100056.53;;;7.15;73.78
61761;BME280;47664;51.660;-0.100;2022-11-20T10:01:54;100043.49;;;7.22;73.64
61761;BME280;47664;51.660;-0.100;2022-11-20T10:04:27;100038.12;;;6.82;73.34
61761;BME280;47664;51.660;-0.100;2022-11-20T10:07:02;100035.10;;;6.67;73.68
61761;BME280;47664;51.660;-0.100;2022-11-20T10:09:34;100031.57;;;6.99;73.95
61761;BME280;47664;51.660;-0.100;2022-11-20T10:12:12;100032.11;;;6.95;73.80
61761;BME280;47664;51.660;-0.100;2022-11-20T10:14:53;100031.67;;;7.01;73.81
61761;BME280;47664;51.660;-0.100;2022-11-20T10:17:33;100026.57;;;6.87;72.83
61761;BME280;47664;51.660;-0.100;2022-11-20T10:20:16;100025.13;;;7.29;73.10
61761;BME280;47664;51.660;-0.100;2022-11-20T10:22:56;100022.01;;;6.92;73.45
61761;BME280;47664;51.660;-0.100;2022-11-20T10:25:37;100019.89;;;7.39;73.48
61761;BME280;47664;51.660;-0.100;2022-11-20T10:28:17;100017.68;;;7.35;73.15
61761;BME280;47664;51.660;-0.100;2022-11-20T10:30:54;100014.23;;;7.28;73.15
61761;BME280;47664;51.660;-0.100;2022-11-20T10:33:31;100013.05;;;7.41;73.17
61761;BME280;47664;51.660;-0.100;2022-11-20T10:36:08;100014.59;;;7.48;71.56
61761;BME280;47664;51.660;-0.100;2022-11-20T10:38:46;100016.89;;;7.43;71.21
61761;BME280;47664;51.660;-0.100;2022-11-20T10:41:20;100013.27;;;7.43;71.37
61761;BME280;47664;51.660;-0.100;2022-11-20T10:43:53;100015.03;;;7.49;71.41
61761;BME280;47664;51.660;-0.100;2022-11-20T10:46:34;100022.66;;;7.93;70.43
61761;BME280;47664;51.660;-0.100;2022-11-20T10:49:11;100022.06;;;7.97;69.50
61761;BME280;47664;51.660;-0.100;2022-11-20T10:51:47;100019.85;;;7.89;69.14
61761;BME280;47664;51.660;-0.100;2022-11-20T10:54:25;100018.62;;;7.96;70.27
61761;BME280;47664;51.660;-0.100;2022-11-20T10:56:59;100019.23;;;7.79;69.39
61761;BME280;47664;51.660;-0.100;2022-11-20T10:59:40;100021.50;;;8.00;69.88
61761;BME280;47664;51.660;-0.100;2022-11-20T11:02:19;100014.96;;;8.13;68.65
61761;BME280;47664;51.660;-0.100;2022-11-20T11:04:52;100019.20;;;7.76;68.94
61761;BME280;47664;51.660;-0.100;2022-11-20T11:07:23;100020.34;;;7.85;68.49
61761;BME280;47664;51.660;-0.100;2022-11-20T11:09:58;100021.16;;;7.92;68.99
61761;BME280;47664;51.660;-0.100;2022-11-20T11:12:31;100020.64;;;8.08;67.92
61761;BME280;47664;51.660;-0.100;2022-11-20T11:15:03;100020.36;;;8.49;68.56
61761;BME280;47664;51.660;-0.100;2022-11-20T11:17:36;100019.72;;;8.24;67.91
61761;BME280;47664;51.660;-0.100;2022-11-20T11:20:17;100016.98;;;8.29;68.13
61761;BME280;47664;51.660;-0.100;2022-11-20T11:22:52;100014.60;;;8.38;68.03
61761;BME280;47664;51.660;-0.100;2022-11-20T11:25:28;100018.07;;;7.99;66.69
61761;BME280;47664;51.660;-0.100;2022-11-20T11:28:02;100019.21;;;8.26;67.90
61761;BME280;47664;51.660;-0.100;2022-11-20T11:30:41;100020.90;;;7.89;68.42
61761;BME280;47664;51.660;-0.100;2022-11-20T11:33:18;100020.17;;;7.99;68.31
61761;BME280;47664;51.660;-0.100;2022-11-20T11:35:52;100019.27;;;7.82;66.76
61761;BME280;47664;51.660;-0.100;2022-11-20T11:38:27;100020.91;;;8.14;66.29
61761;BME280;47664;51.660;-0.100;2022-11-20T11:41:01;100021.11;;;8.12;67.16
61761;BME280;47664;51.660;-0.100;2022-11-20T11:43:36;100018.79;;;8.28;67.69
61761;BME280;47664;51.660;-0.100;2022-11-20T11:46:28;100008.87;;;8.70;64.60
61761;BME280;47664;51.660;-0.100;2022-11-20T11:49:09;100013.05;;;8.39;66.26
61761;BME280;47664;51.660;-0.100;2022-11-20T11:51:56;100010.76;;;8.66;65.32
61761;BME280;47664;51.660;-0.100;2022-11-20T11:54:30;100003.26;;;8.75;64.83
61761;BME280;47664;51.660;-0.100;2022-11-20T11:57:01;99996.19;;;8.61;64.44
61761;BME280;47664;51.660;-0.100;2022-11-20T11:59:44;99992.91;;;8.78;63.95
61761;BME280;47664;51.660;-0.100;2022-11-20T12:02:25;99986.00;;;8.89;64.41
61761;BME280;47664;51.660;-0.100;2022-11-20T12:04:59;99989.74;;;9.09;62.54
61761;BME280;47664;51.660;-0.100;2022-11-20T12:07:38;99989.92;;;8.87;64.32
61761;BME280;47664;51.660;-0.100;2022-11-20T12:10:15;99990.10;;;8.57;64.29
61761;BME280;47664;51.660;-0.100;2022-11-20T12:12:52;99989.45;;;8.72;63.95
61761;BME280;47664;51.660;-0.100;2022-11-20T12:15:26;99990.80;;;8.56;63.14
61761;BME280;47664;51.660;-0.100;2022-11-20T12:18:00;99993.17;;;8.64;63.25
61761;BME280;47664;51.660;-0.100;2022-11-20T12:20:32;99989.82;;;8.47;61.09
61761;BME280;47664;51.660;-0.100;2022-11-20T12:23:05;99997.85;;;8.28;63.26
61761;BME280;47664;51.660;-0.100;2022-11-20T12:25:41;99996.93;;;8.79;62.95
61761;BME280;47664;51.660;-0.100;2022-11-20T12:28:19;100006.80;;;8.75;61.19
61761;BME280;47664;51.660;-0.100;2022-11-20T12:31:01;100008.86;;;8.24;62.39
61761;BME280;47664;51.660;-0.100;2022-11-20T12:33:54;100004.34;;;8.22;62.94
61761;BME280;47664;51.660;-0.100;2022-11-20T12:36:36;100007.90;;;8.25;63.79
61761;BME280;47664;51.660;-0.100;2022-11-20T12:39:18;100004.88;;;8.63;62.61
61761;BME280;47664;51.660;-0.100;2022-11-20T12:41:59;100006.50;;;8.00;62.60
61761;BME280;47664;51.660;-0.100;2022-11-20T12:44:48;100006.42;;;8.65;61.70
61761;BME280;47664;51.660;-0.100;2022-11-20T12:47:26;100006.80;;;8.41;61.25
61761;BME280;47664;51.660;-0.100;2022-11-20T12:50:02;100009.85;;;8.66;60.48
61761;BME280;47664;51.660;-0.100;2022-11-20T12:52:41;100015.56;;;8.20;61.14
61761;BME280;47664;51.660;-0.100;2022-11-20T12:55:23;100017.18;;;8.25;61.34
61761;BME280;47664;51.660;-0.100;2022-11-20T12:58:04;100015.87;;;8.43;60.57
61761;BME280;47664;51.660;-0.100;2022-11-20T13:00:43;100011.38;;;8.36;60.17
61761;BME280;47664;51.660;-0.100;2022-11-20T13:03:27;100008.08;;;8.66;60.35
61761;BME280;47664;51.660;-0.100;2022-11-20T13:06:10;100007.13;;;8.40;59.73
61761;BME280;47664;51.660;-0.100;2022-11-20T13:08:47;100009.23;;;8.33;59.96
61761;BME280;47664;51.660;-0.100;2022-11-20T13:11:24;100010.64;;;8.24;59.70
61761;BME280;47664;51.660;-0.100;2022-11-20T13:14:09;100014.63;;;8.33;59.36
61761;BME280;47664;51.660;-0.100;2022-11-20T13:16:42;100026.63;;;7.62;60.03
61761;BME280;47664;51.660;-0.100;2022-11-20T13:19:17;100035.58;;;8.25;61.05
61761;BME280;47664;51.660;-0.100;2022-11-20T13:21:51;100038.08;;;8.07;59.19
61761;BME280;47664;51.660;-0.100;2022-11-20T13:24:24;100044.04;;;7.96;60.59